createdAt,value
2018-04-15T00:01:31.075Z,48.60
2018-04-15T00:04:02.520Z,48.70
2018-04-15T00:06:33.913Z,49.10
2018-04-15T00:09:04.324Z,49.20
2018-04-15T00:11:35.693Z,49.60
2018-04-15T00:14:07.396Z,49.70
2018-04-15T00:16:38.978Z,50.00
2018-04-15T00:19:10.419Z,50.20
2018-04-15T00:21:41.761Z,50.50
2018-04-15T00:26:49.838Z,50.60
2018-04-15T00:29:21.232Z,50.90
2018-04-15T00:31:52.583Z,51.10
2018-04-15T00:34:24.048Z,51.20
2018-04-15T00:36:55.438Z,51.60
2018-04-15T00:39:26.891Z,51.50
2018-04-15T00:41:59.739Z,52.20
2018-04-15T00:44:31.145Z,52.30
2018-04-15T00:47:03.334Z,52.20
2018-04-15T00:49:34.892Z,52.30
2018-04-15T00:52:06.254Z,52.70
2018-04-15T00:54:37.620Z,52.70
2018-04-15T00:57:09.089Z,52.60
2018-04-15T00:59:40.582Z,52.80
2018-04-15T01:02:12.777Z,53.00
2018-04-15T01:04:44.130Z,53.10
2018-04-15T01:07:15.482Z,53.40
2018-04-15T01:09:47.605Z,53.30
2018-04-15T01:12:19.816Z,53.20
2018-04-15T01:14:51.165Z,53.30
2018-04-15T01:17:22.551Z,53.50
2018-04-15T01:19:53.971Z,53.80
2018-04-15T01:22:25.453Z,53.80
2018-04-15T01:24:56.969Z,54.00
2018-04-15T01:27:29.205Z,54.20
2018-04-15T01:30:01.313Z,54.30
2018-04-15T01:32:32.343Z,54.40
2018-04-15T01:35:03.438Z,54.40
2018-04-15T01:37:34.838Z,54.60
2018-04-15T01:40:05.969Z,54.60
2018-04-15T01:42:37.373Z,54.90
2018-04-15T01:45:08.757Z,55.00
2018-04-15T01:47:41.123Z,55.20
2018-04-15T01:50:13.372Z,55.40
2018-04-15T01:52:46.347Z,55.50
2018-04-15T01:55:17.708Z,55.60
2018-04-15T01:57:49.051Z,55.60
2018-04-15T02:00:20.750Z,55.70
2018-04-15T02:02:54.107Z,56.10
2018-04-15T02:05:25.502Z,56.20
2018-04-15T02:07:57.721Z,56.10
2018-04-15T02:10:29.998Z,56.20
2018-04-15T02:13:01.134Z,56.30
2018-04-15T02:15:32.632Z,56.30
2018-04-15T02:18:04.275Z,56.30
2018-04-15T02:20:35.926Z,56.50
2018-04-15T02:23:07.273Z,56.50
2018-04-15T02:25:41.140Z,56.60
2018-04-15T02:28:12.762Z,56.60
2018-04-15T02:30:44.916Z,57.20
2018-04-15T02:33:16.593Z,57.00
2018-04-15T02:35:48.097Z,57.00
2018-04-15T02:38:19.808Z,57.10
2018-04-15T02:40:51.174Z,57.20
2018-04-15T02:43:22.420Z,57.10
2018-04-15T02:45:53.796Z,57.10
2018-04-15T02:48:25.162Z,57.10
2018-04-15T02:50:56.650Z,57.10
2018-04-15T02:53:28.081Z,57.30
2018-04-15T02:55:59.454Z,57.50
2018-04-15T02:58:31.313Z,57.70
2018-04-15T03:01:02.529Z,57.80
2018-04-15T03:03:33.929Z,57.80
2018-04-15T03:06:06.022Z,58.00
2018-04-15T03:08:37.381Z,58.10
2018-04-15T03:11:08.734Z,58.10
2018-04-15T03:13:40.323Z,58.10
2018-04-15T03:16:11.639Z,58.40
2018-04-15T03:18:43.061Z,58.20
2018-04-15T03:21:14.549Z,58.20
2018-04-15T03:23:46.009Z,58.30
2018-04-15T03:26:17.382Z,58.50
2018-04-15T03:28:49.499Z,58.60
2018-04-15T03:31:20.862Z,58.70
2018-04-15T03:33:52.265Z,58.70
2018-04-15T03:36:24.538Z,58.70
2018-04-15T03:38:56.046Z,58.70
2018-04-15T03:41:27.574Z,58.90
2018-04-15T03:43:59.000Z,58.90
2018-04-15T03:46:30.538Z,59.20
2018-04-15T03:49:02.725Z,59.10
2018-04-15T03:51:34.815Z,59.00
2018-04-15T03:54:06.325Z,59.20
2018-04-15T03:56:38.529Z,59.60
2018-04-15T03:59:09.956Z,59.50
2018-04-15T04:01:42.262Z,59.40
2018-04-15T04:04:13.626Z,59.50
2018-04-15T04:06:45.147Z,59.60
2018-04-15T04:09:17.380Z,59.60
2018-04-15T04:11:49.770Z,59.90
2018-04-15T04:14:21.205Z,59.60
2018-04-15T04:16:52.578Z,59.50
2018-04-15T04:19:41.594Z,59.50
2018-04-15T04:25:42.138Z,60.00
2018-04-15T04:28:13.475Z,59.20
2018-04-15T04:30:44.824Z,59.20
2018-04-15T04:33:16.149Z,59.30
2018-04-15T04:35:48.257Z,59.60
2018-04-15T04:38:19.595Z,59.60
2018-04-15T04:40:50.975Z,59.60
2018-04-15T04:43:22.329Z,59.80
2018-04-15T04:45:53.686Z,59.70
2018-04-15T04:48:26.647Z,60.00
2018-04-15T04:50:57.979Z,60.00
2018-04-15T04:53:29.342Z,60.00
2018-04-15T04:56:00.669Z,59.90
2018-04-15T04:58:32.054Z,60.00
2018-04-15T05:01:03.389Z,59.80
2018-04-15T05:03:35.713Z,59.90
2018-04-15T05:06:07.365Z,59.90
2018-04-15T05:08:39.977Z,60.30
2018-04-15T05:11:12.401Z,60.30
2018-04-15T05:13:43.727Z,60.30
2018-04-15T05:16:15.086Z,60.50
2018-04-15T05:18:46.417Z,60.20
2018-04-15T05:21:17.800Z,60.30
2018-04-15T05:23:49.201Z,60.30
2018-04-15T05:26:20.562Z,60.50
2018-04-15T05:28:51.929Z,60.70
2018-04-15T05:31:23.486Z,60.60
2018-04-15T05:33:54.833Z,60.70
2018-04-15T05:36:25.945Z,60.70
2018-04-15T05:38:57.556Z,60.70
2018-04-15T05:41:29.038Z,60.80
2018-04-15T05:44:01.462Z,60.80
2018-04-15T05:46:33.577Z,61.10
2018-04-15T05:49:06.463Z,61.20
2018-04-15T05:51:38.628Z,61.10
2018-04-15T05:54:10.288Z,61.20
2018-04-15T05:56:42.170Z,61.80
2018-04-15T05:59:14.786Z,61.60
2018-04-15T06:01:46.114Z,61.70
2018-04-15T06:04:17.891Z,61.80
2018-04-15T06:06:49.245Z,61.60
2018-04-15T06:09:20.781Z,61.60
2018-04-15T06:11:52.317Z,61.90
2018-04-15T06:14:24.433Z,62.00
2018-04-15T06:16:55.896Z,62.10
2018-04-15T06:19:28.898Z,62.30
2018-04-15T06:22:01.016Z,62.10
2018-04-15T06:24:32.446Z,62.00
2018-04-15T06:27:04.041Z,61.80
2018-04-15T06:29:35.638Z,61.90
2018-04-15T06:32:07.865Z,61.90
2018-04-15T06:34:40.370Z,62.00
2018-04-15T06:37:12.072Z,62.00
2018-04-15T06:39:43.436Z,62.00
2018-04-15T06:42:14.777Z,61.80
2018-04-15T06:44:45.931Z,61.80
2018-04-15T06:47:17.299Z,61.70
2018-04-15T06:49:48.683Z,62.00
2018-04-15T06:52:20.197Z,61.70
2018-04-15T06:54:52.431Z,61.90
2018-04-15T06:57:23.813Z,61.90
2018-04-15T06:59:55.063Z,61.90
2018-04-15T07:02:26.417Z,62.00
2018-04-15T07:04:57.773Z,62.10
2018-04-15T07:07:29.113Z,61.70
2018-04-15T07:10:00.450Z,62.80
2018-04-15T07:12:31.806Z,62.20
2018-04-15T07:15:02.907Z,61.50
2018-04-15T07:17:35.134Z,61.70
2018-04-15T07:20:06.174Z,61.70
2018-04-15T07:22:37.515Z,61.60
2018-04-15T07:25:08.868Z,62.00
2018-04-15T07:27:40.249Z,61.80
2018-04-15T07:30:12.398Z,61.50
2018-04-15T07:32:43.563Z,61.50
2018-04-15T07:35:15.739Z,61.40
2018-04-15T07:37:47.086Z,61.40
2018-04-15T07:40:18.492Z,61.40
2018-04-15T07:42:50.243Z,61.40
2018-04-15T07:45:21.631Z,62.00
2018-04-15T07:47:53.725Z,61.60
2018-04-15T07:50:25.872Z,61.70
2018-04-15T07:52:57.221Z,61.70
2018-04-15T07:55:29.446Z,61.90
2018-04-15T07:58:01.674Z,61.50
2018-04-15T08:00:33.806Z,61.90
2018-04-15T08:03:05.632Z,61.90
2018-04-15T08:05:37.083Z,62.30
2018-04-15T08:08:08.498Z,62.50
2018-04-15T08:10:39.886Z,62.10
2018-04-15T08:13:11.281Z,62.30
2018-04-15T08:15:42.650Z,62.50
2018-04-15T08:18:15.003Z,61.30
2018-04-15T08:20:46.381Z,61.30
2018-04-15T08:23:18.213Z,61.30
2018-04-15T08:25:49.623Z,61.20
2018-04-15T08:28:21.069Z,61.00
2018-04-15T08:30:52.749Z,60.50
2018-04-15T08:33:24.083Z,60.50
2018-04-15T08:35:55.783Z,60.40
2018-04-15T08:38:27.162Z,60.00
2018-04-15T08:40:59.254Z,59.30
2018-04-15T08:43:30.785Z,59.20
2018-04-15T08:46:02.196Z,59.10
2018-04-15T08:48:33.670Z,59.40
2018-04-15T08:51:05.900Z,59.80
2018-04-15T08:53:37.606Z,59.70
2018-04-15T08:56:09.734Z,59.00
2018-04-15T08:58:41.120Z,59.00
2018-04-15T09:01:12.560Z,58.70
2018-04-15T09:03:44.236Z,58.30
2018-04-15T09:06:16.075Z,58.20
2018-04-15T09:08:47.409Z,58.60
2018-04-15T09:11:18.853Z,58.60
2018-04-15T09:13:50.210Z,58.50
2018-04-15T09:16:21.550Z,58.00
2018-04-15T09:18:52.970Z,57.70
2018-04-15T09:21:24.381Z,57.70
2018-04-15T09:23:55.780Z,57.50
2018-04-15T09:26:27.310Z,57.30
2018-04-15T09:28:58.793Z,57.20
2018-04-15T09:31:30.254Z,57.00
2018-04-15T09:34:01.656Z,56.60
2018-04-15T09:36:33.086Z,56.40
2018-04-15T09:39:03.803Z,56.20
2018-04-15T09:41:35.198Z,56.30
2018-04-15T09:44:07.135Z,57.10
2018-04-15T09:46:38.484Z,56.40
2018-04-15T09:49:09.945Z,56.90
2018-04-15T09:51:41.514Z,57.40
2018-04-15T09:54:13.082Z,57.70
2018-04-15T09:56:45.170Z,56.80
2018-04-15T09:59:16.601Z,56.60
2018-04-15T10:01:48.184Z,56.80
2018-04-15T10:04:19.580Z,57.20
2018-04-15T10:06:50.902Z,56.60
2018-04-15T10:09:22.268Z,55.70
2018-04-15T10:11:53.679Z,55.80
2018-04-15T10:14:25.108Z,55.70
2018-04-15T10:16:57.276Z,55.00
2018-04-15T10:19:29.197Z,54.80
2018-04-15T10:22:00.629Z,53.90
2018-04-15T10:24:32.073Z,53.10
2018-04-15T10:27:03.455Z,52.80
2018-04-15T10:29:34.625Z,53.20
2018-04-15T10:32:07.755Z,52.50
2018-04-15T10:34:39.105Z,52.20
2018-04-15T10:37:10.493Z,51.70
2018-04-15T10:39:41.842Z,50.40
2018-04-15T10:42:13.215Z,49.70
2018-04-15T10:44:44.585Z,49.60
2018-04-15T10:47:16.468Z,49.10
2018-04-15T10:49:47.823Z,48.30
2018-04-15T10:52:19.241Z,47.70
2018-04-15T10:54:51.333Z,44.90
2018-04-15T10:57:22.720Z,44.60
2018-04-15T10:59:54.090Z,44.80
2018-04-15T11:02:27.219Z,44.60
2018-04-15T11:04:58.616Z,44.20
2018-04-15T11:07:30.267Z,43.80
2018-04-15T11:10:01.656Z,43.00
2018-04-15T11:12:33.795Z,41.70
2018-04-15T11:15:05.124Z,41.50
2018-04-15T11:17:36.953Z,41.60
2018-04-15T11:20:08.818Z,42.30
2018-04-15T11:22:40.980Z,41.50
2018-04-15T11:25:13.394Z,41.50
2018-04-15T11:27:44.782Z,41.30
2018-04-15T11:30:16.934Z,42.20
2018-04-15T11:32:48.286Z,41.30
2018-04-15T11:35:19.952Z,42.50
2018-04-15T11:37:51.299Z,42.70
2018-04-15T11:40:22.668Z,42.30
2018-04-15T11:42:54.430Z,42.10
2018-04-15T11:45:25.959Z,40.80
2018-04-15T11:47:58.201Z,38.90
2018-04-15T11:50:29.579Z,38.70
2018-04-15T11:53:01.170Z,38.00
2018-04-15T11:55:33.327Z,38.00
2018-04-15T11:58:05.519Z,37.50
2018-04-15T12:00:36.982Z,37.40
2018-04-15T12:03:08.343Z,36.70
2018-04-15T12:05:39.810Z,36.70
2018-04-15T12:08:11.151Z,36.90
2018-04-15T12:10:42.563Z,36.90
2018-04-15T12:13:14.970Z,36.80
2018-04-15T12:15:48.751Z,36.60
2018-04-15T12:18:20.212Z,37.30
2018-04-15T12:20:51.687Z,37.30
2018-04-15T12:23:23.354Z,37.70
2018-04-15T12:25:54.699Z,37.60
2018-04-15T12:28:26.099Z,36.90
2018-04-15T12:30:58.231Z,36.40
2018-04-15T12:33:29.631Z,36.30
2018-04-15T12:36:01.763Z,36.30
2018-04-15T12:38:33.270Z,36.30
2018-04-15T12:41:04.764Z,36.40
2018-04-15T12:43:36.303Z,36.70
2018-04-15T12:46:07.809Z,36.40
2018-04-15T12:48:39.533Z,36.60
2018-04-15T12:51:11.153Z,36.90
2018-04-15T12:53:42.560Z,37.90
2018-04-15T12:56:13.928Z,38.80
2018-04-15T12:58:45.297Z,38.70
2018-04-15T13:01:16.691Z,39.30
2018-04-15T13:03:48.417Z,39.60
2018-04-15T13:06:20.095Z,39.10
2018-04-15T13:08:51.480Z,38.60
2018-04-15T13:11:23.695Z,37.80
2018-04-15T13:13:56.078Z,36.90
2018-04-15T13:16:27.478Z,36.80
2018-04-15T13:18:59.021Z,36.20
2018-04-15T13:21:30.211Z,36.20
2018-04-15T13:24:01.759Z,36.00
2018-04-15T13:26:33.116Z,36.30
2018-04-15T13:29:04.670Z,36.30
2018-04-15T13:31:36.619Z,36.50
2018-04-15T13:34:07.972Z,36.70
2018-04-15T13:36:39.631Z,36.90
2018-04-15T13:39:10.994Z,36.80
2018-04-15T13:41:42.349Z,36.90
2018-04-15T13:44:13.819Z,37.00
2018-04-15T13:46:45.203Z,37.30
2018-04-15T13:49:17.147Z,37.60
2018-04-15T13:51:50.324Z,37.60
2018-04-15T13:54:21.771Z,37.60
2018-04-15T13:56:54.097Z,37.60
2018-04-15T13:59:26.250Z,37.80
2018-04-15T14:01:57.598Z,37.70
2018-04-15T14:04:29.761Z,37.80
2018-04-15T14:07:01.874Z,38.10
2018-04-15T14:09:33.316Z,37.70
2018-04-15T14:12:05.468Z,37.60
2018-04-15T14:14:37.633Z,37.50
2018-04-15T14:17:09.151Z,37.50
2018-04-15T14:19:40.613Z,37.80
2018-04-15T14:22:12.048Z,38.10
2018-04-15T14:24:43.626Z,38.20
2018-04-15T14:27:15.814Z,38.60
2018-04-15T14:29:47.313Z,38.60
2018-04-15T14:32:18.815Z,38.70
2018-04-15T14:34:50.186Z,38.90
2018-04-15T14:37:21.735Z,39.00
2018-04-15T14:39:53.906Z,38.80
2018-04-15T14:42:26.341Z,38.80
2018-04-15T14:47:34.533Z,38.80
2018-04-15T14:50:05.896Z,38.70
2018-04-15T14:52:37.625Z,38.80
2018-04-15T14:55:09.021Z,39.00
2018-04-15T14:57:42.022Z,39.30
2018-04-15T15:00:13.365Z,39.20
2018-04-15T15:05:20.900Z,39.40
2018-04-15T15:07:52.583Z,39.00
2018-04-15T15:10:24.798Z,38.70
2018-04-15T15:12:57.774Z,38.50
2018-04-15T15:15:29.307Z,38.30
2018-04-15T15:18:02.164Z,38.40
2018-04-15T15:20:33.619Z,38.30
2018-04-15T15:23:05.727Z,37.70
2018-04-15T15:25:37.150Z,37.90
2018-04-15T15:28:08.100Z,37.90
2018-04-15T15:30:39.549Z,37.80
2018-04-15T15:33:11.797Z,37.80
2018-04-15T15:35:43.972Z,37.70
2018-04-15T15:38:16.094Z,37.60
2018-04-15T15:40:47.706Z,37.50
2018-04-15T15:43:19.863Z,37.60
2018-04-15T15:45:51.229Z,37.50
2018-04-15T15:48:22.989Z,37.40
2018-04-15T15:50:54.353Z,38.10
2018-04-15T15:53:25.518Z,37.40
2018-04-15T15:55:56.890Z,37.70
2018-04-15T15:58:28.298Z,37.60
2018-04-15T16:00:59.778Z,37.60
2018-04-15T16:03:31.287Z,37.70
2018-04-15T16:06:02.666Z,37.70
2018-04-15T16:08:34.205Z,37.60
2018-04-15T16:11:05.571Z,37.50
2018-04-15T16:13:37.097Z,37.80
2018-04-15T16:16:09.272Z,37.60
2018-04-15T16:18:41.347Z,37.60
2018-04-15T16:21:12.716Z,37.60
2018-04-15T16:23:44.077Z,37.90
2018-04-15T16:26:15.465Z,37.80
2018-04-15T16:28:47.544Z,38.20
2018-04-15T16:31:19.361Z,38.20
2018-04-15T16:33:50.710Z,38.20
2018-04-15T16:36:22.119Z,38.10
2018-04-15T16:38:53.454Z,38.40
2018-04-15T16:41:25.588Z,38.40
2018-04-15T16:43:56.945Z,38.30
2018-04-15T16:46:28.329Z,38.50
2018-04-15T16:49:00.567Z,38.80
2018-04-15T16:51:31.948Z,38.70
2018-04-15T16:54:04.136Z,38.80
2018-04-15T16:56:36.592Z,39.10
2018-04-15T16:59:08.733Z,38.90
2018-04-15T17:01:40.114Z,38.90
2018-04-15T17:04:12.285Z,39.20
2018-04-15T17:06:43.646Z,39.10
2018-04-15T17:09:15.116Z,39.30
2018-04-15T17:11:46.452Z,39.20
2018-04-15T17:14:17.821Z,39.20
2018-04-15T17:16:49.194Z,39.20
2018-04-15T17:19:20.565Z,39.20
2018-04-15T17:21:53.634Z,39.60
2018-04-15T17:24:25.771Z,39.60
2018-04-15T17:26:57.198Z,39.60
2018-04-15T17:29:28.745Z,39.70
2018-04-15T17:32:00.921Z,39.70
2018-04-15T17:34:33.030Z,39.70
2018-04-15T17:37:04.520Z,39.70
2018-04-15T17:39:35.975Z,39.80
2018-04-15T17:42:07.304Z,39.90
2018-04-15T17:44:38.722Z,39.90
2018-04-15T17:47:10.332Z,40.00
2018-04-15T17:49:42.514Z,40.20
2018-04-15T17:52:14.671Z,40.20
2018-04-15T17:54:46.133Z,40.10
2018-04-15T17:57:17.501Z,40.30
2018-04-15T17:59:49.031Z,40.30
2018-04-15T18:02:20.375Z,40.30
2018-04-15T18:04:52.660Z,40.40
2018-04-15T18:07:23.966Z,40.40
2018-04-15T18:09:55.318Z,40.50
2018-04-15T18:12:28.237Z,40.70
2018-04-15T18:14:59.571Z,40.70
2018-04-15T18:17:30.960Z,41.40
2018-04-15T18:20:02.315Z,40.60
2018-04-15T18:22:33.704Z,40.80
2018-04-15T18:25:05.872Z,41.30
2018-04-15T18:27:37.255Z,41.30
2018-04-15T18:30:09.458Z,41.30
2018-04-15T18:32:41.629Z,41.20
2018-04-15T18:35:13.014Z,41.20
2018-04-15T18:37:44.515Z,41.00
2018-04-15T18:40:15.884Z,41.00
2018-04-15T18:42:47.307Z,41.10
2018-04-15T18:45:19.442Z,41.40
2018-04-15T18:47:50.705Z,41.40
2018-04-15T18:50:22.717Z,42.00
2018-04-15T18:52:54.213Z,41.80
2018-04-15T18:55:26.354Z,41.70
2018-04-15T18:57:57.714Z,41.70
2018-04-15T19:00:29.151Z,41.80
2018-04-15T19:03:00.516Z,41.80
2018-04-15T19:05:31.904Z,41.90
2018-04-15T19:08:04.047Z,42.10
2018-04-15T19:10:35.462Z,42.10
2018-04-15T19:13:06.859Z,42.30
2018-04-15T19:15:39.177Z,42.50
2018-04-15T19:18:11.309Z,42.50
2018-04-15T19:20:43.705Z,42.60
2018-04-15T19:23:15.161Z,42.60
2018-04-15T19:25:46.538Z,42.90
2018-04-15T19:28:17.952Z,42.70
2018-04-15T19:30:49.458Z,42.60
2018-04-15T19:33:20.901Z,42.90
2018-04-15T19:35:52.256Z,43.00
2018-04-15T19:38:23.661Z,43.10
2018-04-15T19:40:55.794Z,43.10
2018-04-15T19:43:28.483Z,43.20
2018-04-15T19:45:59.902Z,43.20
2018-04-15T19:48:30.993Z,43.20
2018-04-15T19:51:02.939Z,43.40
2018-04-15T19:53:34.333Z,43.40
2018-04-15T19:56:05.865Z,44.00
2018-04-15T19:58:38.195Z,43.70
2018-04-15T20:01:09.588Z,43.70
2018-04-15T20:03:41.743Z,44.00
2018-04-15T20:06:13.101Z,44.00
2018-04-15T20:08:45.234Z,44.20
2018-04-15T20:11:16.644Z,44.40
2018-04-15T20:13:49.015Z,44.60
2018-04-15T20:16:20.325Z,44.50
2018-04-15T20:18:52.985Z,44.40
2018-04-15T20:21:24.210Z,44.50
2018-04-15T20:23:55.332Z,44.40
2018-04-15T20:26:27.472Z,45.00
2018-04-15T20:28:58.824Z,45.00
2018-04-15T20:31:30.214Z,45.10
2018-04-15T20:34:01.619Z,45.20
2018-04-15T20:36:33.138Z,45.30
2018-04-15T20:39:03.909Z,45.70
2018-04-15T20:41:35.054Z,45.80
2018-04-15T20:44:07.191Z,46.00
2018-04-15T20:46:38.597Z,46.10
2018-04-15T20:49:09.618Z,46.80
2018-04-15T20:51:41.842Z,46.30
2018-04-15T20:54:13.191Z,46.30
2018-04-15T20:56:44.553Z,46.40
2018-04-15T20:59:15.546Z,46.60
2018-04-15T21:01:46.923Z,46.70
2018-04-15T21:04:18.266Z,46.70
2018-04-15T21:06:49.399Z,46.90
2018-04-15T21:09:20.531Z,46.90
2018-04-15T21:11:52.722Z,47.00
2018-04-15T21:14:24.245Z,47.10
2018-04-15T21:16:56.571Z,47.20
2018-04-15T21:19:27.907Z,47.20
2018-04-15T21:21:59.274Z,47.40
2018-04-15T21:24:30.632Z,47.60
2018-04-15T21:27:02.133Z,47.50
2018-04-15T21:29:34.256Z,47.60
2018-04-15T21:32:05.610Z,47.60
2018-04-15T21:34:36.978Z,47.70
2018-04-15T21:37:09.842Z,48.00
2018-04-15T21:39:41.492Z,48.10
2018-04-15T21:42:12.620Z,48.00
2018-04-15T21:44:43.963Z,48.10
2018-04-15T21:47:15.354Z,48.20
2018-04-15T21:49:46.758Z,48.50
2018-04-15T21:52:18.263Z,48.60
2018-04-15T21:54:50.375Z,48.80
2018-04-15T21:57:21.730Z,48.80
2018-04-15T21:59:53.149Z,48.80
2018-04-15T22:02:24.498Z,48.70
2018-04-15T22:04:55.747Z,49.50
2018-04-15T22:07:28.554Z,49.00
2018-04-15T22:10:01.083Z,49.10
2018-04-15T22:12:32.705Z,49.70
2018-04-15T22:15:04.099Z,49.10
2018-04-15T22:17:35.464Z,49.10
2018-04-15T22:20:06.834Z,49.20
2018-04-15T22:22:38.181Z,49.50
2018-04-15T22:25:10.308Z,49.70
2018-04-15T22:27:42.202Z,49.70
2018-04-15T22:30:13.665Z,49.70
2018-04-15T22:32:45.809Z,49.70
2018-04-15T22:35:17.308Z,49.80
2018-04-15T22:37:48.799Z,49.90
2018-04-15T22:40:19.859Z,50.20
2018-04-15T22:42:51.988Z,50.30
2018-04-15T22:45:23.309Z,50.40
2018-04-15T22:47:59.983Z,50.40
2018-04-15T22:50:36.714Z,50.40
2018-04-15T22:53:07.841Z,50.40
2018-04-15T22:55:39.218Z,50.30
2018-04-15T22:58:10.617Z,50.50
2018-04-15T23:00:41.937Z,51.10
2018-04-15T23:03:13.322Z,50.80
2018-04-15T23:05:44.739Z,50.90
2018-04-15T23:08:16.086Z,50.70
2018-04-15T23:10:47.476Z,50.80
2018-04-15T23:13:18.853Z,51.00
2018-04-15T23:15:50.927Z,50.80
2018-04-15T23:18:23.467Z,50.90
2018-04-15T23:20:54.611Z,50.90
2018-04-15T23:23:26.008Z,50.80
2018-04-15T23:25:58.128Z,51.40
2018-04-15T23:28:29.514Z,51.40
2018-04-15T23:31:01.624Z,51.50
2018-04-15T23:33:33.069Z,51.50
2018-04-15T23:36:04.408Z,51.50
2018-04-15T23:38:36.519Z,51.70
2018-04-15T23:41:07.883Z,51.80
2018-04-15T23:43:38.987Z,51.80
2018-04-15T23:46:10.381Z,51.90
2018-04-15T23:48:41.731Z,51.90
2018-04-15T23:51:13.059Z,52.00
2018-04-15T23:53:44.425Z,52.10
2018-04-15T23:56:16.006Z,52.20
2018-04-15T23:58:48.167Z,52.20
